Time;durP1;ratioP1;P1;durP2;ratioP2;P2;SDS_P1;SDS_P2;PMS_P1;PMS_P2;Temp;Humidity;BMP_temperature;BMP_pressure;BME280_temperature;BME280_humidity;BME280_pressure;Samples;Min_cycle;Max_cycle;Signal;HPM_P1;HPM_P2
2022/08/04 00:00:43;;;;;;;4.97;2.60;;;-40.00;99.90;;;;;;4995980;28;20816;-69
2022/08/04 00:03:31;;;;;;;7.30;3.23;;;-40.00;99.90;;;;;;4996124;28;20166;-71
2022/08/04 00:06:08;;;;;;;5.13;3.03;;;-40.00;99.90;;;;;;4996062;28;20178;-69
2022/08/04 00:08:55;;;;;;;6.93;2.77;;;-40.00;99.90;;;;;;4995887;28;20176;-70
2022/08/04 00:11:24;;;;;;;9.60;3.53;;;-40.00;99.90;;;;;;4995873;28;20182;-68
2022/08/04 00:14:00;;;;;;;2.23;2.03;;;-40.00;99.90;;;;;;4996032;28;20170;-69
2022/08/04 00:16:29;;;;;;;5.17;2.87;;;-40.00;99.90;;;;;;4995917;28;20212;-68
2022/08/04 00:19:00;;;;;;;4.97;2.23;;;-40.00;99.90;;;;;;4995998;28;20252;-71
2022/08/04 00:21:27;;;;;;;3.53;2.50;;;-40.00;99.90;;;;;;4995474;28;20496;-68
2022/08/04 00:23:55;;;;;;;7.93;3.57;;;-40.00;99.90;;;;;;4995964;28;20181;-69
2022/08/04 00:26:21;;;;;;;5.63;2.70;;;-40.00;99.90;;;;;;4996064;28;20309;-67
2022/08/04 00:28:47;;;;;;;2.53;2.17;;;-40.00;99.90;;;;;;4999525;28;20185;-69
2022/08/04 00:31:14;;;;;;;3.97;2.43;;;-40.00;99.90;;;;;;4999601;28;20174;-69
2022/08/04 00:33:47;;;;;;;3.47;1.87;;;-40.00;99.90;;;;;;4999680;28;20184;-69
2022/08/04 00:36:13;;;;;;;3.63;2.63;;;-40.00;99.90;;;;;;4999230;28;20174;-69
2022/08/04 00:38:43;;;;;;;3.63;2.20;;;-40.00;99.90;;;;;;4999450;28;20224;-70
2022/08/04 00:41:21;;;;;;;3.77;3.03;;;-40.00;99.90;;;;;;4999461;28;20288;-70
2022/08/04 00:44:14;;;;;;;4.43;1.90;;;-40.00;99.90;;;;;;4999330;28;20174;-68
2022/08/04 00:47:03;;;;;;;2.57;2.37;;;-40.00;99.90;;;;;;5014748;28;20189;-70
2022/08/04 00:49:48;;;;;;;5.77;2.73;;;-40.00;99.90;;;;;;5014694;28;20162;-69
2022/08/04 00:52:36;;;;;;;11.87;3.13;;;-40.00;99.90;;;;;;4998886;28;20253;-71
2022/08/04 00:55:02;;;;;;;9.17;3.43;;;-40.00;99.90;;;;;;4999253;28;20175;-69
2022/08/04 00:58:05;;;;;;;14.23;2.90;;;-40.00;99.90;;;;;;4999096;28;20570;-69
2022/08/04 01:01:13;;;;;;;2.33;2.23;;;-40.00;99.90;;;;;;4998936;28;20621;-68
2022/08/04 01:03:50;;;;;;;2.43;2.27;;;-40.00;99.90;;;;;;4998247;28;20494;-70
2022/08/04 01:06:43;;;;;;;6.70;3.03;;;-40.00;99.90;;;;;;4998710;28;20604;-69
2022/08/04 01:09:27;;;;;;;10.53;3.00;;;-40.00;99.90;;;;;;4998986;28;20170;-68
2022/08/04 01:12:11;;;;;;;4.80;2.70;;;-40.00;99.90;;;;;;4998866;28;20197;-69
2022/08/04 01:14:55;;;;;;;4.47;2.60;;;-40.00;99.90;;;;;;4998904;28;20212;-69
2022/08/04 01:17:48;;;;;;;5.07;3.13;;;-40.00;99.90;;;;;;5013944;28;20605;-70
2022/08/04 01:20:23;;;;;;;15.37;5.10;;;-40.00;99.90;;;;;;4998527;28;20265;-68
2022/08/04 01:22:55;;;;;;;2.70;2.43;;;-40.00;99.90;;;;;;4998643;28;20178;-69
2022/08/04 01:25:53;;;;;;;7.00;2.60;;;-40.00;99.90;;;;;;5014048;28;20273;-69
2022/08/04 01:28:38;;;;;;;7.37;3.40;;;-40.00;99.90;;;;;;4997244;28;20178;-68
2022/08/04 01:31:20;;;;;;;7.23;3.00;;;-40.00;99.90;;;;;;4998637;28;20174;-69
2022/08/04 01:33:49;;;;;;;5.50;3.10;;;-40.00;99.90;;;;;;5013760;28;20483;-70
2022/08/04 01:36:16;;;;;;;4.97;2.63;;;-40.00;99.90;;;;;;4998382;28;20174;-69
2022/08/04 01:38:43;;;;;;;3.60;2.37;;;-40.00;99.90;;;;;;5013100;28;20234;-68
2022/08/04 01:41:13;;;;;;;4.70;2.70;;;-40.00;99.90;;;;;;4998297;28;20212;-72
2022/08/04 01:43:45;;;;;;;3.13;2.83;;;-40.00;99.90;;;;;;5013566;28;20528;-69
2022/08/04 01:46:13;;;;;;;6.10;3.23;;;-40.00;99.90;;;;;;4998408;28;20182;-69
2022/08/04 01:48:43;;;;;;;4.13;2.70;;;-40.00;99.90;;;;;;4997912;28;20189;-69
2022/08/04 01:51:09;;;;;;;4.07;3.23;;;-40.00;99.90;;;;;;4998188;28;20174;-69
2022/08/04 01:53:40;;;;;;;3.60;3.00;;;-40.00;99.90;;;;;;4998157;28;20613;-70
2022/08/04 01:56:09;;;;;;;6.73;3.90;;;-40.00;99.90;;;;;;4998170;28;20229;-71
2022/08/04 01:58:36;;;;;;;7.30;3.27;;;-40.00;99.90;;;;;;5013076;28;20273;-69
2022/08/04 02:01:07;;;;;;;4.00;2.73;;;-40.00;99.90;;;;;;4998148;28;20206;-69
2022/08/04 02:03:34;;;;;;;4.67;4.30;;;-40.00;99.90;;;;;;4997653;28;20178;-68
2022/08/04 02:06:14;;;;;;;3.77;2.87;;;-40.00;99.90;;;;;;4998060;28;20228;-70
2022/08/04 02:09:08;;;;;;;4.43;3.10;;;-40.00;99.90;;;;;;4997942;28;20273;-69
2022/08/04 02:11:34;;;;;;;7.83;2.83;;;-40.00;99.90;;;;;;5013167;28;20616;-70
2022/08/04 02:14:06;;;;;;;3.53;2.47;;;-40.00;99.90;;;;;;5012941;28;20177;-70
2022/08/04 02:16:43;;;;;;;5.13;2.30;;;-40.00;99.90;;;;;;5012946;28;20636;-69
2022/08/04 02:19:32;;;;;;;3.20;2.57;;;-40.00;99.90;;;;;;4997387;28;20174;-69
2022/08/04 02:22:12;;;;;;;2.67;2.47;;;-40.00;99.90;;;;;;4996781;28;20206;-68
2022/08/04 02:25:06;;;;;;;3.30;2.97;;;-40.00;99.90;;;;;;4997453;28;20212;-70
2022/08/04 02:27:48;;;;;;;5.67;2.67;;;-40.00;99.90;;;;;;4996493;28;20249;-68
2022/08/04 02:30:16;;;;;;;5.23;2.37;;;-40.00;99.90;;;;;;4997393;28;20212;-69
2022/08/04 02:32:45;;;;;;;3.70;2.90;;;-40.00;99.90;;;;;;4997135;28;20170;-68
2022/08/04 02:35:15;;;;;;;4.17;2.13;;;-40.00;99.90;;;;;;4997439;28;20170;-68
2022/08/04 02:37:50;;;;;;;4.53;3.83;;;-40.00;99.90;;;;;;4997533;28;20248;-69
2022/08/04 02:40:20;;;;;;;4.23;3.23;;;-40.00;99.90;;;;;;5012388;28;20190;-69
2022/08/04 02:42:46;;;;;;;5.80;3.67;;;-40.00;99.90;;;;;;4997249;28;20159;-68
2022/08/04 02:45:13;;;;;;;6.80;3.43;;;-40.00;99.90;;;;;;4997437;28;20254;-68
2022/08/04 02:47:41;;;;;;;3.33;2.93;;;-40.00;99.90;;;;;;4996883;28;20235;-69
2022/08/04 02:50:10;;;;;;;3.87;2.83;;;-40.00;99.90;;;;;;4996361;28;20173;-70
2022/08/04 02:52:40;;;;;;;5.70;3.20;;;-40.00;99.90;;;;;;4997101;28;20193;-69
2022/08/04 02:55:08;;;;;;;5.40;3.03;;;-40.00;99.90;;;;;;4996968;28;20574;-68
2022/08/04 02:57:36;;;;;;;5.93;2.97;;;-40.00;99.90;;;;;;4996904;28;20253;-69
2022/08/04 03:00:13;;;;;;;4.13;3.07;;;-40.00;99.90;;;;;;4996856;28;20188;-71
2022/08/04 03:02:50;;;;;;;2.63;2.40;;;-40.00;99.90;;;;;;4996720;28;20178;-71
2022/08/04 03:05:21;;;;;;;4.80;2.63;;;-40.00;99.90;;;;;;4996925;28;20173;-71
2022/08/04 03:08:09;;;;;;;5.20;3.13;;;-40.00;99.90;;;;;;5012072;28;20166;-71
2022/08/04 03:10:57;;;;;;;4.23;3.57;;;-40.00;99.90;;;;;;4996683;28;20476;-71
2022/08/04 03:14:10;;;;;;;3.07;2.77;;;-40.00;99.90;;;;;;4997062;28;20177;-72
2022/08/04 03:16:54;;;;;;;3.63;2.97;;;-40.00;99.90;;;;;;4994930;28;20289;-71
2022/08/04 03:19:31;;;;;;;6.30;3.50;;;-40.00;99.90;;;;;;5014465;28;20198;-71
2022/08/04 03:22:15;;;;;;;6.90;3.40;;;-40.00;99.90;;;;;;5000258;28;20595;-72
2022/08/04 03:25:18;;;;;;;6.40;3.17;;;-40.00;99.90;;;;;;4997637;28;20261;-70
2022/08/04 03:27:50;;;;;;;2.97;2.67;;;-40.00;99.90;;;;;;4995291;28;20174;-70
2022/08/04 03:30:23;;;;;;;9.97;5.07;;;-40.00;99.90;;;;;;4993129;28;20197;-69
2022/08/04 03:33:17;;;;;;;3.00;2.77;;;-40.00;99.90;;;;;;5003387;28;20257;-69
2022/08/04 03:36:11;;;;;;;6.00;3.10;;;-40.00;99.90;;;;;;4994761;28;20186;-70
2022/08/04 03:39:27;;;;;;;5.83;2.80;;;-40.00;99.90;;;;;;4996576;28;20170;-72
2022/08/04 03:42:04;;;;;;;2.70;2.50;;;-40.00;99.90;;;;;;4996553;28;20174;-70
2022/08/04 03:45:07;;;;;;;6.07;3.27;;;-40.00;99.90;;;;;;4996008;28;20277;-71
2022/08/04 03:47:59;;;;;;;3.43;2.53;;;-40.00;99.90;;;;;;4996404;28;20520;-71
2022/08/04 03:53:07;;;;;;;3.37;3.07;;;-40.00;99.90;;;;;;4995004;28;20467;-69
2022/08/04 03:54:11;;;;;;;4.03;3.63;;;-40.00;99.90;;;;;;4996268;28;20216;-73
2022/08/04 03:57:13;;;;;;;5.23;2.77;;;-40.00;99.90;;;;;;4995949;28;20165;-68
2022/08/04 04:00:05;;;;;;;4.93;2.80;;;-40.00;99.90;;;;;;4995875;28;20169;-70
2022/08/04 04:02:47;;;;;;;3.30;2.70;;;-40.00;99.90;;;;;;4998632;28;20189;-72
2022/08/04 04:05:31;;;;;;;3.70;2.73;;;-40.00;99.90;;;;;;5000200;28;20173;-70
2022/08/04 04:08:22;;;;;;;5.20;3.07;;;-40.00;99.90;;;;;;5000193;28;20174;-71
2022/08/04 04:10:57;;;;;;;3.97;2.83;;;-40.00;99.90;;;;;;4999867;28;20220;-72
2022/08/04 04:13:28;;;;;;;2.80;2.60;;;-40.00;99.90;;;;;;5000139;28;20227;-69
2022/08/04 04:16:15;;;;;;;6.13;2.73;;;-40.00;99.90;;;;;;4999839;28;20277;-68
2022/08/04 04:19:18;;;;;;;3.67;2.60;;;-40.00;99.90;;;;;;4999750;28;20196;-68
2022/08/04 04:22:05;;;;;;;10.17;4.03;;;21.10;99.90;;;;;;4999779;28;20193;-70
2022/08/04 04:24:46;;;;;;;5.43;3.00;;;21.10;99.90;;;;;;4999962;28;20253;-71
2022/08/04 04:27:27;;;;;;;2.93;2.73;;;21.10;99.90;;;;;;4999826;28;20242;-72
2022/08/04 04:30:08;;;;;;;7.13;2.70;;;21.00;99.90;;;;;;5014741;28;20178;-71
2022/08/04 04:33:13;;;;;;;3.23;2.70;;;21.00;99.90;;;;;;4999434;28;20629;-69
2022/08/04 04:35:53;;;;;;;3.23;3.03;;;21.10;99.90;;;;;;4999522;28;20527;-70
2022/08/04 04:38:50;;;;;;;3.27;2.40;;;21.10;99.90;;;;;;4999614;28;20249;-69
2022/08/04 04:41:40;;;;;;;2.93;2.73;;;21.10;99.90;;;;;;4999437;28;20213;-69
2022/08/04 04:44:12;;;;;;;6.73;3.40;;;21.10;99.90;;;;;;5014325;28;20531;-70
2022/08/04 04:47:18;;;;;;;43.43;13.70;;;21.20;99.90;;;;;;5014409;28;20620;-72
2022/08/04 04:50:23;;;;;;;17.33;7.13;;;21.20;99.90;;;;;;4999456;28;20170;-70
2022/08/04 04:53:09;;;;;;;10.43;4.13;;;21.40;99.90;;;;;;4999292;28;20232;-70
2022/08/04 04:55:42;;;;;;;6.93;2.90;;;21.60;99.90;;;;;;4999335;28;20612;-71
2022/08/04 04:58:12;;;;;;;9.70;4.20;;;21.70;99.90;;;;;;4998919;28;20577;-69
2022/08/04 05:01:12;;;;;;;7.33;3.63;;;21.80;99.90;;;;;;4999014;28;20190;-70
2022/08/04 05:04:17;;;;;;;5.97;3.50;;;21.80;99.90;;;;;;4999058;28;20170;-69
2022/08/04 05:07:32;;;;;;;6.07;3.40;;;21.70;99.90;;;;;;4998936;28;20241;-69
2022/08/04 05:10:26;;;;;;;7.70;3.40;;;21.70;99.90;;;;;;4997065;28;20193;-70
2022/08/04 05:13:03;;;;;;;11.37;3.47;;;21.70;99.90;;;;;;4997870;28;20178;-71
2022/08/04 05:15:34;;;;;;;6.70;4.37;;;21.60;99.90;;;;;;4999075;28;20496;-70
2022/08/04 05:18:03;;;;;;;10.67;2.90;;;20.70;99.90;;;;;;4998655;28;20340;-71
2022/08/04 05:20:37;;;;;;;5.70;2.33;;;21.40;99.90;;;;;;4998843;28;20240;-70
2022/08/04 05:23:14;;;;;;;5.93;2.43;;;-40.00;99.90;;;;;;4998822;28;20248;-70
2022/08/04 05:25:52;;;;;;;7.23;3.20;;;-40.00;99.90;;;;;;5013995;28;20224;-72
2022/08/04 05:28:25;;;;;;;3.77;2.80;;;-40.00;99.90;;;;;;5013645;28;20170;-70
2022/08/04 05:30:59;;;;;;;10.80;3.17;;;-40.00;99.90;;;;;;4998557;28;20173;-70
2022/08/04 05:33:40;;;;;;;6.50;2.70;;;-40.00;99.90;;;;;;5013857;28;20269;-70
2022/08/04 05:36:13;;;;;;;11.10;3.50;;;-40.00;99.40;;;;;;5013926;28;20233;-72
2022/08/04 05:38:41;;;;;;;9.57;3.77;;;-40.00;99.60;;;;;;4997413;28;20225;-71
2022/08/04 05:41:09;;;;;;;14.17;5.27;;;-40.00;99.10;;;;;;4998256;28;20201;-69
2022/08/04 05:43:37;;;;;;;13.23;4.33;;;-40.00;99.60;;;;;;4998144;28;20194;-71
2022/08/04 05:46:03;;;;;;;11.33;4.30;;;-40.00;99.60;;;;;;4998405;28;20636;-71
2022/08/04 05:48:32;;;;;;;15.27;5.43;;;-40.00;98.90;;;;;;4998114;28;20166;-71
2022/08/04 05:50:58;;;;;;;13.93;3.97;;;-40.00;99.40;;;;;;4998401;28;20170;-70
2022/08/04 05:53:26;;;;;;;9.63;4.07;;;-40.00;97.90;;;;;;4998234;28;20517;-70
2022/08/04 05:55:52;;;;;;;8.63;3.43;;;-40.00;97.40;;;;;;4997986;28;20175;-70
2022/08/04 05:58:19;;;;;;;8.30;2.80;;;-40.00;97.40;;;;;;4998129;28;20216;-70
2022/08/04 06:00:46;;;;;;;7.07;2.90;;;-40.00;97.90;;;;;;4998017;28;20200;-70
2022/08/04 06:03:13;;;;;;;11.67;3.30;;;-40.00;97.10;;;;;;4998177;28;20167;-70
2022/08/04 06:05:42;;;;;;;8.00;4.10;;;-40.00;96.80;;;;;;4998321;28;20241;-70
2022/08/04 06:08:08;;;;;;;8.77;3.43;;;-40.00;96.90;;;;;;4997978;28;20162;-70
2022/08/04 06:10:37;;;;;;;8.50;3.40;;;-40.00;95.70;;;;;;4997715;28;20174;-71
2022/08/04 06:13:07;;;;;;;6.87;3.57;;;-40.00;96.00;;;;;;4997827;28;20532;-70
2022/08/04 06:15:39;;;;;;;7.43;3.37;;;-40.00;96.30;;;;;;4997676;28;20197;-71
2022/08/04 06:18:08;;;;;;;6.37;2.77;;;-40.00;96.20;;;;;;4997530;28;20190;-72
2022/08/04 06:20:38;;;;;;;9.07;4.43;;;-40.00;96.00;;;;;;4997563;28;20230;-72
2022/08/04 06:23:07;;;;;;;9.10;3.73;;;-40.00;95.80;;;;;;4997589;28;20178;-71
2022/08/04 06:25:40;;;;;;;7.30;3.23;;;-40.00;96.00;;;;;;4997392;28;20171;-72
2022/08/04 06:28:07;;;;;;;6.67;3.93;;;-40.00;96.70;;;;;;4997340;28;20166;-71
2022/08/04 06:30:35;;;;;;;13.37;3.53;;;-40.00;97.50;;;;;;4997554;28;20265;-71
2022/08/04 06:33:12;;;;;;;9.27;2.80;;;-40.00;97.40;;;;;;5012724;28;20178;-71
2022/08/04 06:35:39;;;;;;;5.70;3.07;;;-40.00;97.60;;;;;;4997654;28;20578;-70
2022/08/04 06:38:06;;;;;;;5.53;2.87;;;-40.00;97.50;;;;;;4997637;28;20260;-71
2022/08/04 06:40:34;;;;;;;5.87;2.43;;;-40.00;97.20;;;;;;4997170;28;20621;-70
2022/08/04 06:43:01;;;;;;;5.03;2.30;;;-40.00;97.90;;;;;;5012788;28;20174;-70
2022/08/04 06:45:28;;;;;;;8.53;3.40;;;-40.00;97.10;;;;;;4997196;28;20166;-71
2022/08/04 06:47:55;;;;;;;7.87;2.37;;;-40.00;97.40;;;;;;4997345;28;20197;-72
2022/08/04 06:50:22;;;;;;;5.63;2.10;;;-40.00;97.60;;;;;;4997636;28;20174;-71
2022/08/04 06:52:48;;;;;;;6.37;3.13;;;-40.00;97.30;;;;;;4997273;28;20236;-71
2022/08/04 06:55:14;;;;;;;5.50;2.60;;;-40.00;97.20;;;;;;5012352;28;20483;-71
2022/08/04 06:57:41;;;;;;;5.20;2.57;;;-40.00;96.50;;;;;;4997131;28;20173;-70
2022/08/04 07:00:11;;;;;;;3.97;2.43;;;-40.00;96.00;;;;;;4997073;28;20194;-70
2022/08/04 07:02:42;;;;;;;9.07;2.67;;;-40.00;95.80;;;;;;5012441;28;20589;-70
2022/08/04 07:05:09;;;;;;;6.63;2.77;;;-40.00;95.50;;;;;;4996923;28;20482;-69
2022/08/04 07:07:35;;;;;;;5.90;2.50;;;-40.00;95.40;;;;;;4996705;28;20228;-70
2022/08/04 07:10:02;;;;;;;9.13;2.60;;;-40.00;95.40;;;;;;4996788;28;20632;-70
2022/08/04 07:12:29;;;;;;;5.17;1.80;;;-40.00;95.20;;;;;;4996749;28;20181;-70
2022/08/04 07:14:57;;;;;;;8.33;3.17;;;-40.00;94.60;;;;;;4996774;28;20589;-71
2022/08/04 07:17:24;;;;;;;5.17;3.03;;;-40.00;94.20;;;;;;4996959;28;20198;-71
2022/08/04 07:19:51;;;;;;;6.37;3.03;;;-40.00;94.30;;;;;;4996623;28;20539;-70
2022/08/04 07:22:17;;;;;;;4.70;2.50;;;-40.00;94.50;;;;;;4996387;28;20186;-71
2022/08/04 07:24:43;;;;;;;5.47;2.87;;;-40.00;94.50;;;;;;4996592;28;20166;-69
2022/08/04 07:27:09;;;;;;;8.37;2.67;;;-18.90;99.90;;;;;;4996530;28;20236;-72
2022/08/04 07:29:36;;;;;;;8.20;3.73;;;24.80;99.90;;;;;;4996417;28;20257;-71
2022/08/04 07:32:04;;;;;;;4.93;2.10;;;24.90;99.90;;;;;;4996720;28;20173;-70
2022/08/04 07:34:30;;;;;;;6.70;2.33;;;24.90;99.90;;;;;;4996704;28;20523;-71
2022/08/04 07:36:59;;;;;;;6.40;3.20;;;25.00;99.90;;;;;;5000261;28;20170;-70
2022/08/04 07:39:28;;;;;;;6.73;2.27;;;25.00;99.90;;;;;;5009487;28;20197;-71
2022/08/04 07:41:55;;;;;;;8.93;2.27;;;25.10;99.90;;;;;;5005076;28;20170;-70
2022/08/04 07:44:21;;;;;;;10.77;2.70;;;25.20;99.90;;;;;;4996256;28;20570;-71
2022/08/04 07:46:47;;;;;;;5.03;3.40;;;25.20;99.90;;;;;;4996357;28;20257;-71
2022/08/04 07:49:13;;;;;;;8.43;2.50;;;25.00;99.90;;;;;;4996503;28;20525;-71
2022/08/04 07:51:39;;;;;;;11.37;4.10;;;25.10;99.90;;;;;;4995950;28;20170;-70
2022/08/04 07:54:08;;;;;;;5.83;3.40;;;25.20;99.90;;;;;;4996083;28;20225;-70
2022/08/04 07:56:38;;;;;;;7.10;4.07;;;25.10;99.90;;;;;;4996128;28;20511;-69
2022/08/04 07:59:05;;;;;;;7.30;3.57;;;25.10;99.90;;;;;;4996305;28;20170;-71
2022/08/04 08:01:33;;;;;;;6.87;3.10;;;25.20;99.90;;;;;;4996085;28;20197;-73
2022/08/04 08:04:00;;;;;;;4.87;2.80;;;25.10;99.90;;;;;;4996057;28;20182;-71
2022/08/04 08:06:28;;;;;;;9.60;3.53;;;25.20;99.90;;;;;;4995783;28;20167;-70
2022/08/04 08:08:55;;;;;;;13.97;4.57;;;25.20;99.90;;;;;;4996100;28;20169;-73
2022/08/04 08:11:21;;;;;;;8.93;3.87;;;25.20;99.90;;;;;;4996162;28;20245;-70
2022/08/04 08:13:47;;;;;;;3.40;2.27;;;25.30;99.90;;;;;;4996132;28;20182;-70
2022/08/04 08:16:13;;;;;;;5.20;3.40;;;25.10;99.90;;;;;;4995735;28;20202;-70
2022/08/04 08:18:39;;;;;;;6.20;3.53;;;24.90;99.90;;;;;;4996194;28;20187;-71
2022/08/04 08:21:06;;;;;;;7.90;4.27;;;24.60;99.90;;;;;;4995597;28;20264;-70
2022/08/04 08:23:34;;;;;;;8.03;3.60;;;24.60;99.90;;;;;;4996102;28;20178;-69
2022/08/04 08:26:00;;;;;;;6.73;3.53;;;24.60;99.90;;;;;;4995792;28;20170;-70
2022/08/04 08:28:26;;;;;;;6.27;2.63;;;24.50;99.90;;;;;;4995969;28;20166;-71
2022/08/04 08:30:53;;;;;;;8.00;3.03;;;24.20;99.90;;;;;;4995928;28;20170;-70
2022/08/04 08:33:20;;;;;;;7.33;3.50;;;24.20;99.90;;;;;;4995864;28;20174;-71
2022/08/04 08:36:08;;;;;;;4.70;3.47;;;23.90;99.90;;;;;;4995785;28;20245;-71
2022/08/04 08:38:46;;;;;;;8.20;4.13;;;22.90;99.90;;;;;;4994762;28;20179;-71
2022/08/04 08:41:14;;;;;;;12.27;4.70;;;22.90;99.90;;;;;;4995750;28;20374;-70
2022/08/04 08:44:14;;;;;;;15.13;4.17;;;22.70;99.90;;;;;;4995740;28;20169;-70
2022/08/04 08:46:57;;;;;;;10.53;4.30;;;22.60;99.90;;;;;;5011072;28;20221;-73
2022/08/04 08:49:29;;;;;;;13.17;5.30;;;22.60;99.90;;;;;;5013676;28;20477;-70
2022/08/04 08:52:09;;;;;;;8.73;3.93;;;22.40;99.90;;;;;;4999283;28;20198;-71
2022/08/04 08:54:46;;;;;;;10.23;3.47;;;21.50;99.90;;;;;;4999522;28;20196;-71
2022/08/04 08:57:41;;;;;;;7.20;4.40;;;24.30;99.90;;;;;;4999199;28;20260;-72
2022/08/04 09:00:25;;;;;;;9.97;3.97;;;23.40;99.90;;;;;;4999224;28;20203;-71
2022/08/04 09:03:37;;;;;;;8.87;4.23;;;21.40;99.90;;;;;;5014405;28;20174;-71
2022/08/04 09:06:17;;;;;;;9.73;3.60;;;-40.00;99.90;;;;;;4998593;28;20233;-72
2022/08/04 09:08:45;;;;;;;8.20;4.50;;;-40.00;99.90;;;;;;4998991;28;20166;-72
2022/08/04 09:11:13;;;;;;;10.80;5.60;;;-40.00;99.90;;;;;;4999130;28;20185;-71
2022/08/04 09:14:07;;;;;;;9.30;4.70;;;-40.00;99.90;;;;;;4999010;28;20466;-70
2022/08/04 09:16:44;;;;;;;9.03;5.73;;;-40.00;99.90;;;;;;4998900;28;20185;-70
2022/08/04 09:19:18;;;;;;;8.90;4.90;;;-40.00;99.90;;;;;;4998670;28;20521;-69
2022/08/04 09:21:50;;;;;;;27.67;6.00;;;-40.00;99.90;;;;;;4998769;28;20194;-69
2022/08/04 09:24:32;;;;;;;9.87;4.70;;;-40.00;99.90;;;;;;4998932;28;20170;-69
2022/08/04 09:27:17;;;;;;;16.00;5.63;;;-40.00;99.90;;;;;;4998823;28;20220;-72
2022/08/04 09:30:07;;;;;;;6.00;4.23;;;-40.00;99.90;;;;;;4998837;28;20181;-71
2022/08/04 09:33:06;;;;;;;10.63;5.53;;;-40.00;99.90;;;;;;4998322;28;20159;-70
2022/08/04 09:35:47;;;;;;;15.00;6.07;;;-40.00;99.90;;;;;;4998627;28;20581;-72
2022/08/04 09:38:34;;;;;;;12.00;5.37;;;-40.00;99.90;;;;;;4998390;28;20190;-71
2022/08/04 09:41:31;;;;;;;15.20;5.03;;;-40.00;99.90;;;;;;4998445;28;20225;-72
2022/08/04 09:44:39;;;;;;;12.37;5.20;;;-40.00;99.90;;;;;;5013644;28;20482;-70
2022/08/04 09:47:08;;;;;;;8.63;5.23;;;-40.00;99.90;;;;;;4996020;28;20193;-68
2022/08/04 09:49:46;;;;;;;9.30;6.20;;;-40.00;99.90;;;;;;4998011;28;20197;-69
2022/08/04 09:52:34;;;;;;;9.77;7.10;;;-40.00;99.90;;;;;;5013476;28;20248;-69
2022/08/04 09:55:09;;;;;;;35.03;8.50;;;-40.00;99.90;;;;;;4998335;28;20167;-70
2022/08/04 09:57:58;;;;;;;14.07;8.30;;;-40.00;99.90;;;;;;4998124;28;20304;-70
2022/08/04 10:00:30;;;;;;;14.77;9.53;;;-40.00;99.90;;;;;;4996681;28;20206;-70
2022/08/04 10:02:59;;;;;;;20.47;10.33;;;-40.00;99.90;;;;;;5013062;28;20584;-70
2022/08/04 10:05:38;;;;;;;13.73;9.73;;;-40.00;99.90;;;;;;4997866;28;20212;-71
2022/08/04 10:08:33;;;;;;;14.17;10.67;;;-40.00;99.90;;;;;;4997964;28;20173;-70
2022/08/04 10:11:08;;;;;;;15.90;10.83;;;-40.00;99.90;;;;;;5013274;28;20241;-71
2022/08/04 10:13:58;;;;;;;16.20;11.27;;;-40.00;99.90;;;;;;4997775;28;20178;-70
2022/08/04 10:16:45;;;;;;;19.70;13.93;;;-40.00;99.90;;;;;;4997268;28;20545;-71
2022/08/04 10:19:13;;;;;;;23.27;14.23;;;25.50;99.90;;;;;;4997770;28;20605;-71
2022/08/04 10:21:54;;;;;;;18.07;13.33;;;25.90;99.90;;;;;;4997640;28;20194;-70
2022/08/04 10:24:28;;;;;;;20.43;14.00;;;26.10;99.90;;;;;;4997761;28;20233;-71
2022/08/04 10:27:19;;;;;;;20.13;12.40;;;25.40;99.90;;;;;;4997753;28;20163;-70
2022/08/04 10:29:48;;;;;;;17.53;11.87;;;24.40;99.90;;;;;;4997715;28;20305;-68
2022/08/04 10:32:22;;;;;;;14.30;11.00;;;25.70;99.90;;;;;;4997187;28;20163;-71
2022/08/04 10:35:01;;;;;;;20.13;13.13;;;25.60;99.90;;;;;;4997429;28;20181;-71
2022/08/04 10:37:34;;;;;;;14.70;10.33;;;25.70;99.90;;;;;;4997354;28;20173;-69
2022/08/04 10:43:15;;;;;;;18.70;11.77;;;25.70;99.90;;;;;;4997699;28;20253;-71
2022/08/04 10:45:50;;;;;;;15.87;12.17;;;25.70;99.90;;;;;;4996972;28;20174;-72
2022/08/04 10:48:22;;;;;;;18.20;12.40;;;24.10;99.90;;;;;;4997196;28;20177;-70
2022/08/04 10:51:03;;;;;;;13.83;12.43;;;21.50;99.90;;;;;;4997119;28;20178;-70
2022/08/04 10:53:30;;;;;;;17.83;13.97;;;21.50;99.90;;;;;;4997062;28;20553;-70
2022/08/04 10:56:01;;;;;;;19.10;14.17;;;21.10;99.90;;;;;;4996980;28;20173;-70
2022/08/04 10:58:36;;;;;;;14.83;13.13;;;20.60;99.90;;;;;;4997150;28;20181;-72
2022/08/04 11:01:12;;;;;;;19.93;15.03;;;21.40;99.90;;;;;;4996565;28;20276;-71
2022/08/04 11:03:48;;;;;;;17.67;13.73;;;23.80;99.90;;;;;;4997017;28;20162;-71
2022/08/04 11:06:14;;;;;;;25.20;12.57;;;20.80;99.90;;;;;;4996764;28;20577;-71
2022/08/04 11:09:02;;;;;;;15.00;11.53;;;27.00;99.90;;;;;;4996823;28;20197;-70
2022/08/04 11:11:46;;;;;;;17.30;12.53;;;26.90;99.90;;;;;;4996091;28;20212;-70
2022/08/04 11:14:19;;;;;;;21.40;13.40;;;26.70;99.90;;;;;;4996467;28;20188;-71
2022/08/04 11:16:56;;;;;;;18.60;12.97;;;26.90;99.90;;;;;;5012046;28;20680;-70
2022/08/04 11:19:37;;;;;;;14.43;10.53;;;27.00;99.90;;;;;;4996879;28;20165;-71
2022/08/04 11:22:08;;;;;;;16.20;10.57;;;-40.00;90.80;;;;;;4996925;28;20560;-72
2022/08/04 11:24:49;;;;;;;14.83;10.47;;;-40.00;88.80;;;;;;4996769;28;20590;-71
2022/08/04 11:27:23;;;;;;;19.47;11.60;;;-40.00;86.00;;;;;;4995838;28;20181;-71
2022/08/04 11:30:04;;;;;;;21.00;13.13;;;-40.00;86.60;;;;;;5011649;28;20170;-70
2022/08/04 11:33:00;;;;;;;16.40;11.17;;;-40.00;90.90;;;;;;4996541;28;20453;-71
2022/08/04 11:35:41;;;;;;;14.87;10.47;;;-40.00;90.30;;;;;;4996615;28;20697;-70
2022/08/04 11:38:31;;;;;;;14.80;12.27;;;-40.00;91.40;;;;;;4996944;28;20174;-70
2022/08/04 11:41:03;;;;;;;15.53;13.87;;;-40.00;88.90;;;;;;4996691;28;20208;-71
2022/08/04 11:43:36;;;;;;;15.90;12.33;;;-40.00;88.70;;;;;;5000422;28;20216;-71
2022/08/04 11:46:08;;;;;;;17.47;13.47;;;-40.00;89.40;;;;;;5004555;28;20217;-70
2022/08/04 11:48:46;;;;;;;15.67;12.73;;;-40.00;87.70;;;;;;5000818;28;20166;-70
2022/08/04 11:51:13;;;;;;;14.57;10.27;;;-40.00;86.70;;;;;;4996563;28;20227;-71
2022/08/04 11:53:42;;;;;;;10.73;9.63;;;-40.00;88.80;;;;;;4996445;28;20282;-71
2022/08/04 11:56:14;;;;;;;13.63;11.27;;;-40.00;87.20;;;;;;4996543;28;20233;-73
2022/08/04 11:58:40;;;;;;;12.57;11.27;;;-40.00;84.80;;;;;;5011523;28;20486;-71
2022/08/04 12:01:27;;;;;;;11.57;9.80;;;-40.00;82.30;;;;;;4996276;28;20244;-72
2022/08/04 12:04:35;;;;;;;13.47;10.80;;;-40.00;79.40;;;;;;5011614;28;20189;-71
2022/08/04 12:07:25;;;;;;;15.63;10.87;;;-40.00;77.30;;;;;;4996172;28;20162;-72
2022/08/04 12:10:15;;;;;;;15.50;10.63;;;-40.00;78.50;;;;;;5011583;28;20173;-72
2022/08/04 12:12:46;;;;;;;12.00;9.63;;;-40.00;81.70;;;;;;4995929;28;20173;-70
2022/08/04 12:15:26;;;;;;;14.73;11.63;;;-40.00;84.90;;;;;;4995970;28;20178;-72
2022/08/04 12:18:17;;;;;;;13.93;8.63;;;-40.00;82.40;;;;;;4996015;28;20182;-71
2022/08/04 12:20:50;;;;;;;7.90;7.20;;;-40.00;80.00;;;;;;4995931;28;20639;-71
2022/08/04 12:23:35;;;;;;;7.60;6.83;;;-40.00;75.20;;;;;;4998867;28;20170;-69
2022/08/04 12:26:07;;;;;;;11.10;7.83;;;-40.00;77.70;;;;;;4999759;28;20163;-72
2022/08/04 12:28:39;;;;;;;10.63;9.07;;;-40.00;79.40;;;;;;4999494;28;20305;-70
2022/08/04 12:31:14;;;;;;;10.70;8.87;;;-40.00;76.10;;;;;;4999745;28;20178;-72
2022/08/04 12:33:51;;;;;;;8.27;7.57;;;-40.00;76.40;;;;;;4999738;28;20170;-71
2022/08/04 12:36:55;;;;;;;11.00;8.27;;;-40.00;67.10;;;;;;4999475;28;20273;-71
2022/08/04 12:39:23;;;;;;;6.63;6.03;;;-40.00;67.30;;;;;;4999654;28;20500;-69
2022/08/04 12:42:25;;;;;;;10.32;6.78;;;-40.00;66.90;;;;;;4999310;28;20205;-70
2022/08/04 12:44:53;;;;;;;8.15;6.22;;;30.90;99.00;;;;;;4999456;28;20180;-71
2022/08/04 12:47:26;;;;;;;8.07;7.38;;;-40.00;62.30;;;;;;4999247;28;20166;-70
2022/08/04 12:49:57;;;;;;;7.85;5.82;;;-40.00;59.60;;;;;;4999473;28;20174;-72
2022/08/04 12:52:24;;;;;;;7.63;4.78;;;-40.00;60.40;;;;;;4999237;28;20162;-70
2022/08/04 12:54:53;;;;;;;10.13;5.75;;;-40.00;58.40;;;;;;4998666;28;20236;-70
2022/08/04 12:57:22;;;;;;;4.78;4.38;;;-40.00;56.20;;;;;;4998851;28;20178;-72
2022/08/04 12:59:48;;;;;;;6.90;4.93;;;-40.00;56.30;;;;;;4998260;28;20170;-71
2022/08/04 13:02:23;;;;;;;6.72;5.00;;;-40.00;56.90;;;;;;4999305;28;20170;-72
2022/08/04 13:04:49;;;;;;;6.97;5.15;;;-40.00;56.50;;;;;;4999207;28;20173;-72
2022/08/04 13:07:22;;;;;;;5.55;4.55;;;-40.00;55.80;;;;;;4999126;28;20258;-74
2022/08/04 13:09:48;;;;;;;7.63;4.43;;;-40.00;57.10;;;;;;4999226;28;20257;-69
2022/08/04 13:12:19;;;;;;;9.68;5.22;;;-40.00;55.40;;;;;;4998663;28;20169;-73
2022/08/04 13:14:49;;;;;;;4.80;4.35;;;-40.00;53.20;;;;;;4999070;28;20234;-72
2022/08/04 13:17:15;;;;;;;7.22;4.45;;;-40.00;54.50;;;;;;5014168;28;20202;-72
2022/08/04 13:19:51;;;;;;;8.05;5.07;;;-40.00;53.90;;;;;;4999042;28;20166;-73
2022/08/04 13:22:28;;;;;;;5.30;4.35;;;-40.00;54.80;;;;;;4998765;28;20602;-72
2022/08/04 13:24:57;;;;;;;13.63;5.10;;;33.40;94.30;;;;;;4998683;28;20201;-72
2022/08/04 13:27:24;;;;;;;5.20;4.50;;;33.70;94.20;;;;;;5013886;28;20178;-71